Time;durP1;ratioP1;P1;durP2;ratioP2;P2;SDS_P1;SDS_P2;PMS_P1;PMS_P2;Temp;Humidity;BMP_temperature;BMP_pressure;BME280_temperature;BME280_humidity;BME280_pressure;Samples;Min_cycle;Max_cycle;Signal;HPM_P1;HPM_P2
2022/09/25 00:02:01;;;;;;;1.50;0.82;;;14.90;99.90;;;;;;5012941;28;20045;-67
2022/09/25 00:05:06;;;;;;;1.20;0.70;;;14.90;99.90;;;;;;5012525;28;20049;-67
2022/09/25 00:08:28;;;;;;;0.82;0.55;;;14.80;99.90;;;;;;5013174;28;20516;-68
2022/09/25 00:11:32;;;;;;;;;;;14.80;99.90;;;;;;5013324;28;20053;-68
2022/09/25 00:14:54;;;;;;;1.10;1.00;;;14.80;99.90;;;;;;5012397;28;19938;-68
2022/09/25 00:19:48;;;;;;;2.45;1.17;;;14.80;99.90;;;;;;5012669;28;20045;-69
2022/09/25 00:21:42;;;;;;;2.35;0.90;;;14.70;99.90;;;;;;5012652;28;20049;-67
2022/09/25 00:24:47;;;;;;;3.30;1.08;;;14.70;99.90;;;;;;5012060;28;20049;-68
2022/09/25 00:27:52;;;;;;;5.05;1.00;;;14.70;99.90;;;;;;5012684;28;20053;-67
2022/09/25 00:30:56;;;;;;;1.40;0.80;;;14.60;99.90;;;;;;5012737;28;20048;-67
2022/09/25 00:34:03;;;;;;;1.92;1.00;;;14.60;99.90;;;;;;5011745;28;20045;-66
2022/09/25 00:37:07;;;;;;;1.80;0.80;;;14.60;99.90;;;;;;5011375;28;20049;-66
2022/09/25 00:40:13;;;;;;;0.95;0.88;;;14.60;99.90;;;;;;5012445;28;20037;-68
2022/09/25 00:43:32;;;;;;;5.10;1.95;;;14.60;99.90;;;;;;5011976;28;20053;-67
2022/09/25 00:46:41;;;;;;;1.55;1.35;;;14.60;99.90;;;;;;5012228;28;20069;-67
2022/09/25 00:50:04;;;;;;;3.15;2.28;;;14.60;99.90;;;;;;5012518;28;20048;-67
2022/09/25 00:53:13;;;;;;;2.65;1.73;;;14.50;99.90;;;;;;5012255;28;20053;-68
2022/09/25 00:56:38;;;;;;;2.42;2.00;;;14.50;99.90;;;;;;5012186;28;20072;-68
2022/09/25 01:00:02;;;;;;;4.10;2.63;;;14.40;99.90;;;;;;5012572;28;20044;-67
2022/09/25 01:03:07;;;;;;;2.90;2.10;;;14.40;99.90;;;;;;5022595;28;20049;-67
2022/09/25 01:16:36;;;;;;;3.03;2.17;;;14.40;99.90;;;;;;5028832;28;20071;-67
2022/09/25 01:19:59;;;;;;;5.70;2.47;;;15.20;99.90;;;;;;5025176;28;20060;-67
2022/09/25 01:26:52;;;;;;;4.88;3.25;;;14.40;99.90;;;;;;5011497;28;19936;-67
2022/09/25 01:30:18;;;;;;;3.92;2.80;;;12.90;99.90;;;;;;5011607;28;20524;-67
2022/09/25 01:33:34;;;;;;;5.38;3.10;;;14.40;99.90;;;;;;5011004;28;20052;-66
2022/09/25 01:37:01;;;;;;;7.85;4.10;;;14.40;99.90;;;;;;5011210;28;20052;-67
2022/09/25 01:44:08;;;;;;;4.15;3.30;;;14.40;99.90;;;;;;5010810;28;20061;-65
2022/09/25 01:47:19;;;;;;;6.10;3.78;;;14.30;99.90;;;;;;5010802;28;20079;-67
2022/09/25 01:50:36;;;;;;;7.65;4.63;;;14.30;99.90;;;;;;5011175;28;20053;-68
2022/09/25 01:54:14;;;;;;;7.65;4.80;;;14.20;99.90;;;;;;5010206;28;20057;-67
2022/09/25 01:57:40;;;;;;;5.50;4.32;;;14.20;99.90;;;;;;5010754;28;20057;-68
2022/09/25 02:00:54;;;;;;;6.18;5.20;;;14.20;99.90;;;;;;5011073;28;20686;-67
2022/09/25 02:04:25;;;;;;;9.68;5.43;;;14.10;99.90;;;;;;5010549;28;20057;-67
2022/09/25 02:07:36;;;;;;;9.10;6.07;;;14.10;99.90;;;;;;5010917;28;20052;-67
2022/09/25 02:10:48;;;;;;;8.02;6.43;;;14.10;99.90;;;;;;5010837;28;20064;-67
2022/09/25 02:14:02;;;;;;;8.75;6.25;;;14.00;99.90;;;;;;5010240;28;20033;-67
2022/09/25 02:17:09;;;;;;;8.90;5.95;;;14.10;99.90;;;;;;5010726;28;20041;-67
2022/09/25 02:20:32;;;;;;;6.65;5.10;;;14.10;99.90;;;;;;5010949;28;20037;-67
2022/09/25 02:23:35;;;;;;;8.20;6.55;;;14.10;99.90;;;;;;5010538;28;20044;-67
2022/09/25 02:27:19;;;;;;;10.35;5.45;;;14.00;99.90;;;;;;5010573;28;20420;-66
2022/09/25 02:30:41;;;;;;;9.68;5.30;;;14.00;99.90;;;;;;5010777;28;20100;-67
2022/09/25 02:33:45;;;;;;;6.53;4.30;;;14.00;99.90;;;;;;5010284;28;20061;-67
2022/09/25 02:37:09;;;;;;;5.65;4.57;;;14.00;99.90;;;;;;5010491;28;20049;-66
2022/09/25 02:40:13;;;;;;;7.00;4.47;;;14.00;99.90;;;;;;5009870;28;20053;-67
2022/09/25 02:43:42;;;;;;;7.60;4.45;;;14.00;99.90;;;;;;5009935;28;20057;-66
2022/09/25 02:47:54;;;;;;;7.20;4.93;;;14.00;99.90;;;;;;5009421;28;20065;-67
2022/09/25 02:51:51;;;;;;;6.95;4.72;;;14.00;99.90;;;;;;5010364;28;20044;-67
2022/09/25 02:55:05;;;;;;;6.88;5.25;;;14.00;99.90;;;;;;5009991;28;20061;-67
2022/09/25 02:58:21;;;;;;;5.50;4.90;;;13.90;99.90;;;;;;5010340;28;20048;-67
2022/09/25 03:01:27;;;;;;;7.95;4.88;;;13.90;99.90;;;;;;5014459;28;20049;-66
2022/09/25 03:04:35;;;;;;;5.25;3.67;;;14.00;99.90;;;;;;5013751;28;20045;-67
2022/09/25 03:11:07;;;;;;;5.30;3.30;;;13.90;99.90;;;;;;5014240;28;20057;-67
2022/09/25 03:25:16;;;;;;;3.83;2.78;;;14.00;99.90;;;;;;5013082;28;20388;-67
2022/09/25 03:28:22;;;;;;;3.53;2.63;;;14.00;99.90;;;;;;5014259;28;20061;-66
2022/09/25 03:31:27;;;;;;;4.25;2.80;;;13.90;99.90;;;;;;5014069;28;20049;-67
2022/09/25 03:34:50;;;;;;;4.18;2.58;;;13.90;99.90;;;;;;5013262;28;20053;-66
2022/09/25 03:38:13;;;;;;;5.13;2.75;;;13.90;99.90;;;;;;5014027;28;20041;-67
2022/09/25 03:41:20;;;;;;;3.53;2.78;;;13.90;99.90;;;;;;5014232;28;20057;-67
2022/09/25 03:44:24;;;;;;;2.97;2.30;;;13.90;99.90;;;;;;5012885;28;20401;-67
2022/09/25 03:47:28;;;;;;;5.90;2.70;;;14.40;99.90;;;;;;5013406;28;20507;-68
2022/09/25 03:50:32;;;;;;;3.17;2.83;;;13.90;99.90;;;;;;5013447;28;20053;-68
2022/09/25 03:53:36;;;;;;;4.65;2.88;;;14.00;99.90;;;;;;5012912;28;20057;-68
2022/09/25 03:56:41;;;;;;;3.28;2.88;;;14.00;99.90;;;;;;5013226;28;20064;-68
2022/09/25 03:59:45;;;;;;;3.20;2.75;;;14.00;99.90;;;;;;5013363;28;20508;-68
2022/09/25 04:02:49;;;;;;;3.83;2.97;;;14.00;99.90;;;;;;5013312;28;20049;-68
2022/09/25 04:06:14;;;;;;;4.03;2.88;;;14.00;99.90;;;;;;5013039;28;20044;-68
2022/09/25 04:09:17;;;;;;;8.85;3.20;;;14.00;99.90;;;;;;5012792;28;20040;-67
2022/09/25 04:12:21;;;;;;;7.78;3.10;;;13.90;99.90;;;;;;5012945;28;20044;-68
2022/09/25 04:15:25;;;;;;;8.77;3.22;;;13.90;99.90;;;;;;5012639;28;20417;-68
2022/09/25 04:18:48;;;;;;;5.35;3.28;;;13.80;99.90;;;;;;5012818;28;20045;-68
2022/09/25 04:22:11;;;;;;;6.40;4.68;;;13.80;99.90;;;;;;5012884;28;20040;-68
2022/09/25 04:25:34;;;;;;;7.15;4.15;;;13.80;99.90;;;;;;5012341;28;20053;-68
2022/09/25 04:28:38;;;;;;;4.65;3.95;;;13.70;99.90;;;;;;5012561;28;20056;-68
2022/09/25 04:35:43;;;;;;;8.18;5.18;;;13.70;99.90;;;;;;5013080;28;20049;-68
2022/09/25 04:38:48;;;;;;;6.05;4.03;;;13.80;99.90;;;;;;5013277;28;20045;-68
2022/09/25 04:42:10;;;;;;;4.95;4.22;;;13.80;99.90;;;;;;5013336;28;20488;-68
2022/09/25 04:49:33;;;;;;;5.43;3.70;;;13.90;99.90;;;;;;5013038;28;20049;-68
2022/09/25 04:52:57;;;;;;;5.25;3.65;;;13.90;99.90;;;;;;5013276;28;20041;-68
2022/09/25 04:56:06;;;;;;;10.68;4.03;;;13.80;99.90;;;;;;5012647;28;20049;-68
2022/09/25 04:59:10;;;;;;;6.65;4.60;;;13.80;99.90;;;;;;5012831;28;20520;-69
2022/09/25 05:02:14;;;;;;;8.80;4.70;;;13.80;99.90;;;;;;5012338;28;20043;-68
2022/09/25 05:05:18;;;;;;;6.82;4.53;;;13.80;99.90;;;;;;5012501;28;20252;-68
2022/09/25 05:08:41;;;;;;;7.03;4.60;;;13.80;99.90;;;;;;5012690;28;20053;-68
2022/09/25 05:12:05;;;;;;;6.22;4.32;;;13.80;99.90;;;;;;5012620;28;20500;-68
2022/09/25 05:15:30;;;;;;;5.50;4.10;;;13.70;99.90;;;;;;5012651;28;20056;-68
2022/09/25 05:18:34;;;;;;;6.10;5.00;;;13.60;99.90;;;;;;5012686;28;20045;-68
2022/09/25 05:21:38;;;;;;;7.82;4.80;;;13.60;99.90;;;;;;5012577;28;20048;-68
2022/09/25 05:24:42;;;;;;;7.18;5.25;;;13.60;99.90;;;;;;5012191;28;20049;-68
2022/09/25 05:27:47;;;;;;;7.72;5.25;;;13.60;99.90;;;;;;5012301;28;20049;-68
2022/09/25 05:31:10;;;;;;;5.57;4.57;;;13.60;99.90;;;;;;5012531;28;20033;-68
2022/09/25 05:34:32;;;;;;;6.63;5.05;;;13.60;99.90;;;;;;5012114;28;20044;-68
2022/09/25 05:44:40;;;;;;;6.53;4.45;;;13.80;99.90;;;;;;5011688;28;20049;-68
2022/09/25 05:47:44;;;;;;;7.95;4.85;;;13.90;99.90;;;;;;5012219;28;20052;-68
2022/09/25 05:50:53;;;;;;;6.70;5.40;;;14.00;99.90;;;;;;5011026;28;20053;-68
2022/09/25 05:54:15;;;;;;;6.80;4.60;;;14.20;99.90;;;;;;5011070;28;20409;-68
2022/09/25 05:57:19;;;;;;;5.55;4.32;;;14.90;99.90;;;;;;5012055;28;20045;-68
2022/09/25 06:00:42;;;;;;;6.45;3.60;;;15.40;99.90;;;;;;5011544;28;20397;-68
2022/09/25 06:03:46;;;;;;;7.07;3.90;;;15.60;99.90;;;;;;5011205;28;20049;-69
2022/09/25 06:06:51;;;;;;;3.70;3.00;;;15.50;99.90;;;;;;5011714;28;20413;-69
2022/09/25 06:09:55;;;;;;;2.95;2.50;;;15.40;99.90;;;;;;5012187;28;20053;-69
2022/09/25 06:16:43;;;;;;;1.73;1.20;;;17.20;99.90;;;;;;5011631;28;20048;-68
2022/09/25 06:20:05;;;;;;;2.55;1.60;;;18.70;99.90;;;;;;5011319;28;20052;-68
2022/09/25 06:23:09;;;;;;;4.20;2.28;;;20.30;99.90;;;;;;5011234;28;20045;-68
2022/09/25 06:26:32;;;;;;;2.20;1.02;;;19.10;99.90;;;;;;5011567;28;20397;-69
2022/09/25 06:29:54;;;;;;;1.50;1.10;;;19.40;99.90;;;;;;5011071;28;20053;-69
2022/09/25 06:33:12;;;;;;;7.53;2.25;;;19.70;99.90;;;;;;5010445;28;20117;-68
2022/09/25 06:36:16;;;;;;;3.50;1.52;;;18.10;99.90;;;;;;5011410;28;20060;-68
2022/09/25 06:39:20;;;;;;;3.53;1.52;;;17.60;99.90;;;;;;5011132;28;20049;-68
2022/09/25 06:46:06;;;;;;;2.22;1.35;;;17.70;99.90;;;;;;5011438;28;20045;-68
2022/09/25 06:49:29;;;;;;;2.40;1.77;;;17.60;99.90;;;;;;5010919;28;20052;-69
2022/09/25 06:52:32;;;;;;;4.03;1.90;;;17.20;99.90;;;;;;5011097;28;20400;-68
2022/09/25 06:55:37;;;;;;;4.85;2.10;;;17.10;99.90;;;;;;5010340;28;20045;-68
2022/09/25 06:58:41;;;;;;;3.65;1.60;;;17.50;99.90;;;;;;5010995;28;20125;-68
2022/09/25 07:01:45;;;;;;;1.63;1.48;;;18.50;99.90;;;;;;5010905;28;20045;-68
2022/09/25 07:04:50;;;;;;;1.73;1.42;;;19.20;99.90;;;;;;5010527;28;20057;-69
2022/09/25 07:07:54;;;;;;;2.65;1.52;;;20.10;99.90;;;;;;5011225;28;20044;-69
2022/09/25 07:11:20;;;;;;;1.33;0.90;;;21.40;99.90;;;;;;5010946;28;20065;-68
2022/09/25 07:14:24;;;;;;;2.42;1.08;;;23.00;99.90;;;;;;5010592;28;20059;-69
2022/09/25 07:17:48;;;;;;;2.25;1.30;;;22.30;99.90;;;;;;5010476;28;20397;-69
2022/09/25 07:20:52;;;;;;;2.65;0.98;;;22.30;99.90;;;;;;5010475;28;20041;-68
2022/09/25 07:23:57;;;;;;;1.92;1.00;;;21.80;99.90;;;;;;5010689;28;20052;-69
2022/09/25 07:27:01;;;;;;;4.05;1.00;;;22.40;99.90;;;;;;5010694;28;20492;-69
2022/09/25 07:30:06;;;;;;;1.42;1.08;;;22.40;99.90;;;;;;5010633;28;20049;-69
2022/09/25 07:33:11;;;;;;;5.63;1.00;;;21.80;99.90;;;;;;5010294;28;20105;-69
2022/09/25 07:36:16;;;;;;;2.58;0.70;;;23.20;99.90;;;;;;5010843;28;20045;-69
2022/09/25 07:42:43;;;;;;;4.78;1.40;;;21.70;99.90;;;;;;5010502;28;20404;-69
2022/09/25 07:45:53;;;;;;;3.65;1.30;;;21.50;99.90;;;;;;5011620;28;20057;-69
2022/09/25 07:48:57;;;;;;;1.92;1.10;;;20.00;99.90;;;;;;5014367;28;20045;-68
2022/09/25 07:52:38;;;;;;;6.85;1.20;;;20.00;99.90;;;;;;5014170;28;20049;-69
2022/09/25 07:56:01;;;;;;;3.20;1.17;;;20.90;99.90;;;;;;5013920;28;20645;-69
2022/09/25 07:59:05;;;;;;;3.42;1.35;;;21.10;99.90;;;;;;5013829;28;20045;-69
2022/09/25 08:02:09;;;;;;;3.47;1.63;;;20.90;99.90;;;;;;5013804;28;21022;-69
2022/09/25 08:05:14;;;;;;;2.28;1.10;;;21.90;99.90;;;;;;5013577;28;20041;-69
2022/09/25 08:08:17;;;;;;;4.88;1.58;;;22.00;99.90;;;;;;5013895;28;20491;-69
2022/09/25 08:11:40;;;;;;;3.85;1.73;;;20.70;99.90;;;;;;5013855;28;20057;-69
2022/09/25 08:14:44;;;;;;;4.57;1.52;;;20.00;99.90;;;;;;5013452;28;20389;-69
2022/09/25 08:18:25;;;;;;;4.13;1.70;;;20.20;99.90;;;;;;5013501;28;20045;-67
2022/09/25 08:22:06;;;;;;;3.25;1.98;;;20.00;99.90;;;;;;5013488;28;20041;-69
2022/09/25 08:25:11;;;;;;;3.38;1.52;;;19.10;99.90;;;;;;5013451;28;20053;-69
2022/09/25 08:28:34;;;;;;;1.50;1.23;;;18.90;99.90;;;;;;5013728;28;20065;-68
2022/09/25 08:31:38;;;;;;;1.95;1.75;;;18.10;99.90;;;;;;5012474;28;20045;-69
2022/09/25 08:34:42;;;;;;;2.72;1.42;;;17.70;99.90;;;;;;5013034;28;20516;-69
2022/09/25 08:38:06;;;;;;;2.03;1.65;;;18.20;99.90;;;;;;5013121;28;20069;-69
2022/09/25 08:41:25;;;;;;;2.55;1.52;;;19.10;99.90;;;;;;5013351;28;20044;-69
2022/09/25 08:49:00;;;;;;;4.20;1.20;;;19.40;99.90;;;;;;5013333;28;20045;-68
2022/09/25 08:49:04;;;;;;;3.17;1.13;;;21.10;99.90;;;;;;5013102;28;20053;-69
2022/09/25 08:52:46;;;;;;;3.45;1.00;;;22.20;99.90;;;;;;5013155;28;20073;-69
2022/09/25 08:59:47;;;;;;;1.45;1.17;;;21.50;99.90;;;;;;5012719;28;20491;-69
2022/09/25 09:03:11;;;;;;;2.38;1.38;;;20.60;99.90;;;;;;5012783;28;20048;-69
2022/09/25 09:06:57;;;;;;;1.95;1.50;;;19.70;99.90;;;;;;5012862;28;20058;-69
2022/09/25 09:10:06;;;;;;;1.40;1.25;;;19.10;99.90;;;;;;5013161;28;20057;-69
2022/09/25 09:17:17;;;;;;;3.63;1.33;;;19.60;99.90;;;;;;5029970;28;20048;-68
2022/09/25 09:24:36;;;;;;;3.78;1.17;;;19.80;99.90;;;;;;5012195;28;20049;-68
2022/09/25 09:28:11;;;;;;;4.57;1.50;;;20.30;99.90;;;;;;5012054;28;20057;-67
2022/09/25 09:31:47;;;;;;;2.47;1.40;;;19.20;99.90;;;;;;5010790;28;20061;-67
2022/09/25 09:35:28;;;;;;;1.85;1.25;;;19.40;99.90;;;;;;5012144;28;20056;-67
2022/09/25 09:39:00;;;;;;;1.42;1.02;;;18.80;99.90;;;;;;5027046;28;20052;-67
2022/09/25 09:42:08;;;;;;;1.70;1.30;;;19.50;99.90;;;;;;5031644;28;20040;-67
2022/09/25 09:45:34;;;;;;;1.40;0.95;;;20.10;99.90;;;;;;5031213;28;20507;-67
2022/09/25 09:48:54;;;;;;;2.08;1.10;;;20.50;99.90;;;;;;5031879;28;20044;-67
2022/09/25 09:52:22;;;;;;;1.30;1.17;;;21.50;99.90;;;;;;5031831;28;20499;-68
2022/09/25 09:55:48;;;;;;;1.88;0.90;;;22.20;99.90;;;;;;5031478;28;20044;-66
2022/09/25 10:02:45;;;;;;;2.60;1.02;;;22.30;99.90;;;;;;5031398;28;20484;-68
2022/09/25 10:06:10;;;;;;;3.08;1.05;;;20.70;99.90;;;;;;5030940;28;20056;-67
2022/09/25 10:09:35;;;;;;;2.17;1.17;;;20.80;99.90;;;;;;5031033;28;20519;-67
2022/09/25 10:16:11;;;;;;;2.38;1.15;;;21.60;99.90;;;;;;5031281;28;20045;-66
2022/09/25 10:19:54;;;;;;;2.10;1.00;;;22.00;99.90;;;;;;5030868;28;20052;-67
2022/09/25 10:23:01;;;;;;;1.67;1.20;;;22.20;99.90;;;;;;5031181;28;20068;-68
2022/09/25 10:26:43;;;;;;;1.83;1.20;;;20.90;99.90;;;;;;5030717;28;20040;-67
2022/09/25 10:30:20;;;;;;;2.83;1.40;;;20.30;99.90;;;;;;5030885;28;20049;-68
2022/09/25 10:33:26;;;;;;;1.40;1.08;;;20.50;99.90;;;;;;5031037;28;20440;-67
2022/09/25 10:40:07;;;;;;;1.65;1.38;;;21.10;99.90;;;;;;5030453;28;20048;-67
2022/09/25 10:50:41;;;;;;;1.92;1.60;;;19.90;99.90;;;;;;5030761;28;20052;-66
2022/09/25 10:54:15;;;;;;;3.63;1.60;;;19.50;99.90;;;;;;5029598;28;20048;-67
2022/09/25 10:57:37;;;;;;;2.42;1.35;;;19.20;99.90;;;;;;5030473;28;20053;-66
2022/09/25 11:01:12;;;;;;;2.78;1.48;;;19.10;99.90;;;;;;5030662;28;20049;-66
2022/09/25 11:04:24;;;;;;;2.22;1.48;;;19.40;99.90;;;;;;5030434;28;20496;-67
2022/09/25 11:07:53;;;;;;;3.25;1.52;;;19.90;99.90;;;;;;5030151;28;20041;-67
2022/09/25 11:11:00;;;;;;;3.60;1.90;;;19.90;99.90;;;;;;5030631;28;20047;-66
2022/09/25 11:14:31;;;;;;;2.10;1.70;;;19.90;99.90;;;;;;5030153;28;20044;-67
2022/09/25 11:17:41;;;;;;;2.58;1.77;;;19.90;99.90;;;;;;5030314;28;20052;-66
2022/09/25 11:21:00;;;;;;;1.80;1.50;;;19.70;99.90;;;;;;5031921;28;20056;-67
2022/09/25 11:24:36;;;;;;;2.03;1.60;;;19.70;99.90;;;;;;5034264;28;20045;-67
2022/09/25 11:28:04;;;;;;;2.95;1.67;;;19.70;99.90;;;;;;5034095;28;20048;-67
2022/09/25 11:31:34;;;;;;;2.80;1.85;;;19.70;99.90;;;;;;5033700;28;20044;-67
2022/09/25 11:35:00;;;;;;;3.95;2.40;;;19.40;99.90;;;;;;5034047;28;20511;-66
2022/09/25 11:42:00;;;;;;;2.67;2.28;;;19.20;99.90;;;;;;5034481;28;20049;-67
2022/09/25 11:45:35;;;;;;;4.72;2.30;;;18.90;99.90;;;;;;5033893;28;20495;-67
2022/09/25 11:49:14;;;;;;;4.60;2.00;;;18.80;99.90;;;;;;5033980;28;20419;-66
2022/09/25 11:52:41;;;;;;;3.92;2.10;;;18.80;99.90;;;;;;5028171;28;20055;-66
2022/09/25 11:55:57;;;;;;;5.10;2.47;;;18.70;99.90;;;;;;5033051;28;20041;-66
2022/09/25 11:59:37;;;;;;;5.10;1.75;;;18.40;99.90;;;;;;5033538;28;20388;-67
2022/09/25 12:03:17;;;;;;;3.08;2.22;;;18.50;99.90;;;;;;5033528;28;20041;-66
2022/09/25 12:06:37;;;;;;;;;;;18.30;99.90;;;;;;5033977;28;20387;-66
2022/09/25 12:10:03;;;;;;;4.13;2.03;;;18.40;99.90;;;;;;5033714;28;19905;-66
2022/09/25 12:13:13;;;;;;;7.28;2.45;;;18.60;99.90;;;;;;5033202;28;20396;-66
2022/09/25 12:16:22;;;;;;;3.20;2.22;;;18.90;99.90;;;;;;5033778;28;20044;-66
2022/09/25 12:19:38;;;;;;;5.60;2.30;;;19.40;99.90;;;;;;5033244;28;20048;-66
2022/09/25 12:23:19;;;;;;;3.10;1.65;;;20.30;99.90;;;;;;5033319;28;20508;-65
2022/09/25 12:26:43;;;;;;;3.50;1.42;;;22.00;99.90;;;;;;5033129;28;20037;-66
2022/09/25 12:34:25;;;;;;;4.57;1.70;;;23.00;99.90;;;;;;5033043;28;20612;-67
2022/09/25 12:38:17;;;;;;;2.75;1.75;;;22.50;99.90;;;;;;5032899;28;20052;-66
2022/09/25 12:41:50;;;;;;;3.78;1.70;;;20.50;99.90;;;;;;5010764;28;20527;-66
2022/09/25 12:48:48;;;;;;;3.55;2.20;;;19.10;99.90;;;;;;5032882;28;20044;-66
2022/09/25 12:52:13;;;;;;;7.18;3.00;;;18.80;99.90;;;;;;5033091;28;20516;-66
2022/09/25 12:55:30;;;;;;;3.70;2.72;;;18.70;99.90;;;;;;5032355;28;20052;-66
2022/09/25 12:59:19;;;;;;;5.00;2.70;;;18.60;99.90;;;;;;5032337;28;20041;-65
2022/09/25 13:02:51;;;;;;;4.15;2.60;;;18.70;99.90;;;;;;5032550;28;20044;-66
2022/09/25 13:09:50;;;;;;;4.20;2.42;;;19.00;99.90;;;;;;5032109;28;20045;-66
2022/09/25 13:12:59;;;;;;;2.65;2.33;;;18.90;99.90;;;;;;5032510;28;20044;-66
2022/09/25 13:16:04;;;;;;;5.90;2.22;;;19.10;99.90;;;;;;5032260;28;20040;-66
2022/09/25 13:19:21;;;;;;;2.38;1.77;;;19.40;99.90;;;;;;5032005;28;20048;-65
2022/09/25 13:22:26;;;;;;;6.85;1.90;;;19.70;99.90;;;;;;5032432;28;20384;-66
2022/09/25 13:25:58;;;;;;;6.57;2.20;;;19.80;99.90;;;;;;5031904;28;20045;-66
2022/09/25 13:29:20;;;;;;;3.97;1.90;;;20.10;99.90;;;;;;5031668;28;20048;-66
2022/09/25 13:32:49;;;;;;;2.70;1.63;;;20.30;99.90;;;;;;5031185;28;20491;-66
2022/09/25 13:36:08;;;;;;;3.33;1.85;;;20.40;99.90;;;;;;5031556;28;20044;-66
2022/09/25 13:43:23;;;;;;;4.75;2.25;;;19.70;99.90;;;;;;5031133;28;20112;-66
2022/09/25 13:46:30;;;;;;;4.25;2.00;;;19.70;99.90;;;;;;5031804;28;20045;-66
2022/09/25 13:50:10;;;;;;;5.50;2.45;;;19.20;99.90;;;;;;5031452;28;20048;-66
2022/09/25 13:53:26;;;;;;;11.20;2.85;;;19.30;99.90;;;;;;5031353;28;20059;-66
2022/09/25 13:56:49;;;;;;;3.13;2.60;;;19.30;99.90;;;;;;5031786;28;20053;-66
2022/09/25 14:00:32;;;;;;;;;;;19.40;99.90;;;;;;5031504;28;20507;-66
2022/09/25 14:03:42;;;;;;;4.05;3.65;;;19.50;99.90;;;;;;5031355;28;20379;-66
2022/09/25 14:06:51;;;;;;;5.03;2.60;;;19.30;99.90;;;;;;5031520;28;20412;-66
2022/09/25 14:09:57;;;;;;;4.53;2.75;;;19.30;99.90;;;;;;5030841;28;20045;-66
2022/09/25 14:13:02;;;;;;;4.57;2.92;;;19.40;99.90;;;;;;5030831;28;20068;-65
2022/09/25 14:16:35;;;;;;;7.00;3.00;;;19.70;99.90;;;;;;5030995;28;20060;-66
2022/09/25 14:20:00;;;;;;;4.88;2.90;;;20.20;99.90;;;;;;5030831;28;20076;-66
2022/09/25 14:23:22;;;;;;;5.10;3.33;;;20.50;99.90;;;;;;5031176;28;20492;-65
2022/09/25 14:33:42;;;;;;;3.88;2.42;;;20.40;99.90;;;;;;5038890;28;20040;-65
2022/09/25 14:37:31;;;;;;;4.10;2.10;;;20.00;99.90;;;;;;5030779;28;20045;-66
2022/09/25 14:41:17;;;;;;;6.47;2.92;;;19.70;99.90;;;;;;5030270;28;20519;-66
2022/09/25 14:45:07;;;;;;;8.57;3.33;;;19.60;99.90;;;;;;5030955;28;20052;-66
2022/09/25 14:48:19;;;;;;;5.38;3.15;;;19.40;99.90;;;;;;5030775;28;20056;-66
2022/09/25 14:51:40;;;;;;;8.65;4.90;;;19.30;99.90;;;;;;5030363;28;20053;-66
2022/09/25 14:54:46;;;;;;;11.95;5.00;;;19.20;99.90;;;;;;5029574;28;20044;-66
2022/09/25 14:57:51;;;;;;;5.07;4.07;;;19.00;99.90;;;;;;5030709;28;20044;-66
2022/09/25 15:01:28;;;;;;;7.40;5.00;;;18.90;99.90;;;;;;5030459;28;20044;-66
2022/09/25 15:04:33;;;;;;;8.80;5.82;;;18.70;99.90;;;;;;5030085;28;20032;-66
2022/09/25 15:07:58;;;;;;;11.40;5.47;;;18.30;99.90;;;;;;5030506;28;20053;-66
2022/09/25 15:11:24;;;;;;;10.20;6.03;;;18.20;99.90;;;;;;5030190;28;20048;-66
2022/09/25 15:14:28;;;;;;;11.80;5.40;;;18.10;99.90;;;;;;5030045;28;20040;-66
2022/09/25 15:17:43;;;;;;;13.95;12.35;;;18.00;99.90;;;;;;5030598;28;20053;-66
2022/09/25 15:24:37;;;;;;;17.45;15.85;;;18.00;99.90;;;;;;5029868;28;20050;-65
2022/09/25 15:27:41;;;;;;;14.75;12.05;;;18.00;99.90;;;;;;5030451;28;20396;-66
2022/09/25 15:30:54;;;;;;;8.38;6.00;;;18.10;99.90;;;;;;5030163;28;20068;-66
2022/09/25 15:34:26;;;;;;;10.48;6.18;;;17.10;99.90;;;;;;5030333;28;20056;-66
2022/09/25 15:37:49;;;;;;;14.82;10.27;;;18.10;99.90;;;;;;5030053;28;20407;-66
2022/09/25 15:41:30;;;;;;;30.55;16.92;;;17.90;99.90;;;;;;5029840;28;20060;-65
2022/09/25 15:44:33;;;;;;;13.07;6.40;;;17.90;99.90;;;;;;5029837;28;20491;-65
2022/09/25 15:47:51;;;;;;;12.40;5.57;;;17.90;99.90;;;;;;5029864;28;20040;-65
2022/09/25 15:50:58;;;;;;;9.60;6.63;;;17.90;99.90;;;;;;5029887;28;20040;-65
2022/09/25 15:54:38;;;;;;;11.10;7.20;;;17.80;99.90;;;;;;5029793;28;20060;-66
2022/09/25 16:07:50;;;;;;;11.52;6.25;;;17.50;99.90;;;;;;5032628;28;20041;-66
2022/09/25 16:11:25;;;;;;;15.73;7.00;;;17.50;99.90;;;;;;5033051;28;20060;-66
2022/09/25 16:14:49;;;;;;;13.38;10.88;;;17.50;99.90;;;;;;5033170;28;20048;-66
2022/09/25 16:17:55;;;;;;;16.15;10.00;;;17.50;99.90;;;;;;5033222;28;20246;-67
2022/09/25 16:24:40;;;;;;;12.25;7.82;;;17.50;99.90;;;;;;5032655;28;20053;-67
2022/09/25 16:28:26;;;;;;;16.92;9.38;;;17.40;99.90;;;;;;5033144;28;20499;-66
2022/09/25 16:31:31;;;;;;;11.32;9.57;;;17.20;99.90;;;;;;5032717;28;20048;-66
2022/09/25 16:34:59;;;;;;;15.73;10.35;;;17.10;99.90;;;;;;5032680;28;20044;-66
2022/09/25 16:38:03;;;;;;;12.05;10.18;;;17.10;99.90;;;;;;5031951;28;20037;-67
2022/09/25 16:41:13;;;;;;;12.27;9.50;;;17.10;99.90;;;;;;5032179;28;20060;-66
2022/09/25 16:52:18;;;;;;;12.80;8.68;;;17.10;99.90;;;;;;5032154;28;20052;-67
2022/09/25 16:55:26;;;;;;;12.27;8.13;;;17.20;99.90;;;;;;5032116;28;20052;-67
2022/09/25 16:58:48;;;;;;;10.90;8.93;;;17.20;99.90;;;;;;5031739;28;20068;-67
2022/09/25 17:02:37;;;;;;;13.10;8.68;;;17.10;99.90;;;;;;5032142;28;20052;-67
2022/09/25 17:06:00;;;;;;;12.63;10.45;;;17.10;99.90;;;;;;5031921;28;20109;-66
2022/09/25 17:12:51;;;;;;;15.15;11.52;;;17.10;99.90;;;;;;5031449;28;20079;-67
2022/09/25 17:15:56;;;;;;;17.85;12.05;;;17.10;99.90;;;;;;5031664;28;20056;-67
2022/09/25 17:19:00;;;;;;;20.73;13.70;;;17.00;99.90;;;;;;5030740;28;20045;-67
2022/09/25 17:22:28;;;;;;;19.77;13.55;;;17.00;99.90;;;;;;5031138;28;20040;-67
2022/09/25 17:29:50;;;;;;;73.93;18.17;;;16.70;99.90;;;;;;5031411;28;20052;-67
2022/09/25 17:32:57;;;;;;;26.40;18.02;;;16.60;99.90;;;;;;5029872;28;20053;-67
2022/09/25 17:36:20;;;;;;;24.98;17.45;;;16.60;99.90;;;;;;5031318;28;20060;-67
2022/09/25 17:39:25;;;;;;;21.55;17.05;;;16.60;99.90;;;;;;5030895;28;20105;-66
2022/09/25 17:42:30;;;;;;;28.00;18.48;;;16.60;99.90;;;;;;5030265;28;20057;-67
2022/09/25 17:45:42;;;;;;;31.77;20.52;;;16.60;99.90;;;;;;5030021;28;20060;-66
2022/09/25 17:48:46;;;;;;;26.90;18.02;;;16.60;99.90;;;;;;5031022;28;20037;-67
2022/09/25 17:51:51;;;;;;;24.98;17.17;;;16.60;99.90;;;;;;5031151;28;20546;-67
2022/09/25 17:54:55;;;;;;;20.95;15.57;;;16.60;99.90;;;;;;5030300;28;20072;-66
2022/09/25 17:57:59;;;;;;;20.55;14.52;;;16.60;99.90;;;;;;5030185;28;20400;-67
2022/09/25 18:01:25;;;;;;;20.80;15.35;;;16.60;99.90;;;;;;5030820;28;20618;-67
2022/09/25 18:04:47;;;;;;;20.77;14.95;;;16.60;99.90;;;;;;5030465;28;20523;-67
2022/09/25 18:07:51;;;;;;;;;;;16.60;99.90;;;;;;5031678;28;20044;-67
2022/09/25 18:10:57;;;;;;;49.97;28.88;;;16.50;99.90;;;;;;5031005;28;19936;-67
2022/09/25 18:14:01;;;;;;;26.98;16.55;;;16.60;99.90;;;;;;5029983;28;20041;-67
2022/09/25 18:17:05;;;;;;;29.88;20.42;;;16.70;99.90;;;;;;5030318;28;20064;-67
2022/09/25 18:24:10;;;;;;;18.73;14.88;;;16.70;99.90;;;;;;5030150;28;20524;-67
2022/09/25 18:27:14;;;;;;;20.48;15.25;;;16.70;99.90;;;;;;5030571;28;20048;-67
2022/09/25 18:30:26;;;;;;;19.20;15.07;;;16.70;99.90;;;;;;5030270;28;20506;-67
2022/09/25 18:33:49;;;;;;;20.15;15.18;;;16.70;99.90;;;;;;5029491;28;20052;-67
2022/09/25 18:36:53;;;;;;;22.83;14.55;;;16.70;99.90;;;;;;5029766;28;20056;-66
2022/09/25 18:40:18;;;;;;;18.27;13.65;;;16.70;99.90;;;;;;5029835;28;20073;-67
2022/09/25 18:43:42;;;;;;;17.55;13.57;;;16.60;99.90;;;;;;5029084;28;20539;-66
2022/09/25 18:50:46;;;;;;;23.05;14.00;;;16.60;99.90;;;;;;5029945;28;20044;-66
2022/09/25 18:53:50;;;;;;;;;;;16.60;99.90;;;;;;5029690;28;20048;-67
2022/09/25 18:57:14;;;;;;;22.77;14.40;;;16.60;99.90;;;;;;5029847;28;19916;-67
2022/09/25 19:00:19;;;;;;;18.30;14.60;;;16.60;99.90;;;;;;5029947;28;20053;-67
2022/09/25 19:03:23;;;;;;;19.27;14.15;;;16.50;99.90;;;;;;5028703;28;20068;-67
2022/09/25 19:06:46;;;;;;;20.00;15.10;;;16.60;99.90;;;;;;5030152;28;20045;-66
2022/09/25 19:09:51;;;;;;;20.88;15.45;;;16.60;99.90;;;;;;5030391;28;20044;-66
2022/09/25 19:13:15;;;;;;;26.42;15.18;;;16.60;99.90;;;;;;5029599;28;20064;-66
2022/09/25 19:16:19;;;;;;;19.60;13.88;;;16.60;99.90;;;;;;5030102;28;20056;-66
2022/09/25 19:19:24;;;;;;;25.27;15.75;;;16.60;99.90;;;;;;5029734;28;20044;-66
2022/09/25 19:29:22;;;;;;;27.15;18.83;;;16.50;99.90;;;;;;5029628;28;19916;-67
2022/09/25 19:32:26;;;;;;;27.30;18.73;;;16.60;99.90;;;;;;5029697;28;20499;-67
2022/09/25 19:35:49;;;;;;;31.67;19.77;;;16.60;99.90;;;;;;5028972;28;20040;-66
2022/09/25 19:39:11;;;;;;;29.98;18.90;;;16.70;99.90;;;;;;5029794;28;20060;-66
2022/09/25 19:42:15;;;;;;;29.90;19.77;;;16.70;99.90;;;;;;5031569;28;20048;-67